Time;durP1;ratioP1;P1;durP2;ratioP2;P2;SDS_P1;SDS_P2;PMS_P1;PMS_P2;Temp;Humidity;BMP_temperature;BMP_pressure;BME280_temperature;BME280_humidity;BME280_pressure;Samples;Min_cycle;Max_cycle;Signal;HPM_P1;HPM_P2
2022/07/16 00:01:38;;;;;;;2.53;1.47;;;13.50;1.00;;;;;;10482535;28;20203;-78
2022/07/16 00:06:59;;;;;;;3.50;1.33;;;13.50;1.00;;;;;;10481206;28;20238;-81
2022/07/16 00:12:21;;;;;;;2.63;1.02;;;13.50;1.00;;;;;;10481043;28;20229;-80
2022/07/16 00:17:42;;;;;;;3.72;1.33;;;13.50;1.00;;;;;;10481445;28;20191;-78
2022/07/16 00:23:05;;;;;;;6.18;1.20;;;13.40;1.00;;;;;;10480693;28;20223;-78
2022/07/16 00:28:26;;;;;;;3.13;1.70;;;13.40;1.00;;;;;;10466557;28;20214;-77
2022/07/16 00:33:47;;;;;;;1.98;1.02;;;13.40;1.00;;;;;;10465944;28;20203;-77
2022/07/16 00:39:10;;;;;;;1.70;1.03;;;13.30;1.00;;;;;;10466367;28;20191;-78
2022/07/16 00:44:31;;;;;;;5.80;1.27;;;13.30;1.00;;;;;;10466048;28;20212;-78
2022/07/16 00:49:53;;;;;;;1.70;1.03;;;13.30;1.00;;;;;;10464513;28;20306;-80
2022/07/16 00:55:14;;;;;;;2.83;1.45;;;13.30;1.00;;;;;;10480486;28;20188;-80
2022/07/16 01:00:36;;;;;;;5.32;1.08;;;13.30;1.00;;;;;;10467547;28;20203;-81
2022/07/16 01:05:58;;;;;;;2.43;1.00;;;13.20;1.00;;;;;;10479480;28;20191;-82
2022/07/16 01:11:20;;;;;;;2.40;0.90;;;13.20;1.00;;;;;;10479551;28;20305;-80
2022/07/16 01:16:42;;;;;;;2.83;1.15;;;13.20;1.00;;;;;;10479183;28;20198;-78
2022/07/16 01:22:04;;;;;;;3.97;1.02;;;13.20;1.00;;;;;;10464657;28;20546;-79
2022/07/16 01:27:25;;;;;;;3.10;1.60;;;13.10;19.70;;;;;;10478230;28;20218;-80
2022/07/16 01:32:47;;;;;;;3.63;1.70;;;13.10;16.40;;;;;;10478025;28;20601;-84
2022/07/16 01:38:11;;;;;;;3.35;1.17;;;13.10;21.20;;;;;;10477269;28;20196;-80
2022/07/16 01:43:33;;;;;;;2.75;1.13;;;13.00;21.60;;;;;;10478970;28;20269;-84
2022/07/16 01:48:54;;;;;;;4.30;1.17;;;13.00;30.20;;;;;;10463558;28;20230;-86
2022/07/16 01:54:17;;;;;;;4.30;1.52;;;12.90;34.70;;;;;;10478221;28;20259;-84
2022/07/16 01:59:39;;;;;;;4.63;1.30;;;12.90;31.50;;;;;;10463297;28;20276;-79
2022/07/16 02:05:01;;;;;;;4.30;1.48;;;12.90;36.60;;;;;;10463600;28;20435;-84
2022/07/16 02:10:22;;;;;;;2.83;1.60;;;12.90;39.10;;;;;;10478194;28;20242;-86
2022/07/16 02:15:44;;;;;;;2.37;1.30;;;13.00;38.50;;;;;;10491500;28;20199;-86
2022/07/16 02:21:06;;;;;;;5.30;1.65;;;13.00;32.70;;;;;;10477420;28;20228;-85
2022/07/16 02:26:28;;;;;;;3.03;1.40;;;13.00;28.30;;;;;;10463482;28;20223;-86
2022/07/16 02:31:50;;;;;;;3.83;1.73;;;13.00;46.30;;;;;;10496546;28;20309;-86
2022/07/16 02:37:11;;;;;;;5.23;1.60;;;12.90;43.80;;;;;;10463338;28;20193;-86
2022/07/16 02:42:33;;;;;;;4.15;1.70;;;13.00;41.00;;;;;;10462784;28;20198;-86
2022/07/16 02:47:55;;;;;;;2.53;0.95;;;13.10;33.50;;;;;;10496654;28;20526;-86
2022/07/16 02:53:17;;;;;;;2.30;0.80;;;13.20;19.10;;;;;;10484591;28;20244;-85
2022/07/16 02:58:39;;;;;;;0.77;0.77;;;13.20;4.10;;;;;;10484604;28;20270;-86
2022/07/16 03:04:00;;;;;;;4.35;1.13;;;13.30;1.00;;;;;;10485747;28;20393;-85
2022/07/16 03:09:22;;;;;;;1.38;0.60;;;13.30;1.00;;;;;;10484121;28;20570;-84
2022/07/16 03:14:44;;;;;;;0.90;0.80;;;13.30;1.00;;;;;;10518763;28;20290;-86
2022/07/16 03:20:07;;;;;;;1.92;0.95;;;13.40;1.00;;;;;;10491718;28;20388;-86
2022/07/16 03:25:29;;;;;;;2.65;0.90;;;13.40;1.00;;;;;;10484755;28;20200;-84
2022/07/16 03:30:51;;;;;;;1.83;0.80;;;13.40;1.00;;;;;;10484025;28;20290;-86
2022/07/16 03:36:12;;;;;;;2.13;0.83;;;13.40;1.00;;;;;;10469049;28;20392;-86
2022/07/16 03:41:38;;;;;;;1.10;0.90;;;13.30;1.00;;;;;;10483172;28;20270;-85
2022/07/16 03:47:00;;;;;;;2.72;1.00;;;13.30;1.00;;;;;;10482888;28;20516;-85
2022/07/16 03:52:21;;;;;;;1.80;0.70;;;13.30;1.00;;;;;;10482705;28;20252;-85
2022/07/16 03:57:43;;;;;;;1.60;0.83;;;13.30;5.10;;;;;;10483270;28;20280;-82
2022/07/16 04:03:05;;;;;;;2.87;1.40;;;13.30;8.50;;;;;;10496274;28;20263;-81
2022/07/16 04:08:26;;;;;;;1.95;1.00;;;13.40;2.90;;;;;;10482714;28;20235;-85
2022/07/16 04:13:48;;;;;;;3.30;1.15;;;13.50;1.00;;;;;;10509288;28;20215;-86
2022/07/16 04:19:09;;;;;;;1.75;0.80;;;13.60;1.00;;;;;;10453007;28;20205;-84
2022/07/16 04:24:30;;;;;;;2.05;0.95;;;13.60;1.00;;;;;;10481559;28;20219;-86
2022/07/16 04:29:52;;;;;;;4.15;1.50;;;13.80;1.00;;;;;;10482127;28;20220;-84
2022/07/16 04:35:14;;;;;;;4.85;1.50;;;13.90;1.00;;;;;;10466932;28;20491;-85
2022/07/16 04:40:36;;;;;;;3.33;1.25;;;13.90;1.00;;;;;;10480708;28;20273;-85
2022/07/16 04:45:57;;;;;;;2.53;1.15;;;14.00;1.00;;;;;;10480607;28;20491;-83
2022/07/16 04:51:18;;;;;;;2.13;1.38;;;14.10;1.00;;;;;;10455452;28;20230;-85
2022/07/16 04:56:39;;;;;;;4.32;1.38;;;14.10;1.00;;;;;;10480282;28;20244;-86
2022/07/16 05:07:41;;;;;;;3.42;1.00;;;14.20;1.00;;;;;;10479609;28;20225;-80
2022/07/16 05:13:03;;;;;;;2.60;1.05;;;14.20;1.00;;;;;;10502098;28;20218;-80
2022/07/16 05:18:25;;;;;;;2.90;1.23;;;14.10;1.00;;;;;;10440694;28;20189;-82
2022/07/16 05:23:46;;;;;;;9.65;1.67;;;14.20;1.00;;;;;;10464303;28;20501;-83
2022/07/16 05:29:08;;;;;;;1.63;0.93;;;14.40;1.00;;;;;;10479644;28;20511;-83
2022/07/16 05:34:29;;;;;;;6.15;1.73;;;14.50;1.00;;;;;;10480673;28;20281;-85
2022/07/16 05:39:51;;;;;;;1.83;1.00;;;14.60;1.00;;;;;;10477569;28;20508;-80
2022/07/16 05:45:12;;;;;;;6.95;1.35;;;14.70;1.00;;;;;;10477544;28;20194;-79
2022/07/16 05:50:34;;;;;;;4.40;1.25;;;15.10;1.00;;;;;;10491408;28;20220;-80
2022/07/16 05:55:55;;;;;;;2.53;0.70;;;15.30;1.00;;;;;;10465868;28;20195;-79
2022/07/16 06:01:17;;;;;;;4.72;1.27;;;15.50;1.00;;;;;;10479826;28;20273;-78
2022/07/16 06:06:38;;;;;;;4.13;1.13;;;15.60;1.00;;;;;;10477274;28;20221;-78
2022/07/16 06:12:00;;;;;;;2.13;1.10;;;15.70;1.00;;;;;;10476729;28;20252;-77
2022/07/16 06:17:21;;;;;;;2.33;1.10;;;15.70;1.00;;;;;;10493594;28;20212;-79
2022/07/16 06:22:43;;;;;;;4.97;1.20;;;15.80;1.00;;;;;;10476782;28;20209;-83
2022/07/16 06:28:05;;;;;;;4.38;0.90;;;15.90;1.00;;;;;;10486168;28;20217;-77
2022/07/16 06:33:26;;;;;;;3.63;1.05;;;16.10;1.00;;;;;;10471015;28;20224;-82
2022/07/16 06:38:48;;;;;;;6.57;1.17;;;16.20;1.00;;;;;;10470625;28;20213;-77
2022/07/16 06:44:09;;;;;;;4.05;1.30;;;16.20;1.00;;;;;;10495588;28;20198;-79
2022/07/16 06:49:31;;;;;;;4.40;1.20;;;16.10;1.00;;;;;;10510163;28;20257;-80
2022/07/16 06:54:52;;;;;;;3.63;1.35;;;16.00;1.00;;;;;;10484571;28;20192;-83
2022/07/16 07:00:14;;;;;;;2.78;1.27;;;15.90;1.00;;;;;;10484515;28;20376;-80
2022/07/16 07:05:36;;;;;;;3.08;1.38;;;15.90;1.00;;;;;;10483838;28;20203;-80
2022/07/16 07:10:59;;;;;;;2.70;1.10;;;15.80;1.00;;;;;;10483415;28;20242;-80
2022/07/16 07:16:21;;;;;;;4.28;1.27;;;15.70;1.00;;;;;;10461999;28;20205;-77
2022/07/16 07:21:43;;;;;;;4.25;1.20;;;15.60;1.00;;;;;;10482580;28;20205;-79
2022/07/16 07:27:05;;;;;;;6.20;1.65;;;15.50;1.00;;;;;;10468847;28;20218;-78
2022/07/16 07:32:27;;;;;;;4.85;1.98;;;15.50;1.00;;;;;;10468500;28;20301;-81
2022/07/16 07:37:48;;;;;;;1.25;1.00;;;15.50;1.00;;;;;;10481628;28;20217;-84
2022/07/16 07:43:09;;;;;;;6.43;1.30;;;15.60;1.00;;;;;;10483158;28;20272;-81
2022/07/16 07:48:31;;;;;;;3.08;0.90;;;15.60;1.00;;;;;;10481891;28;20244;-82
2022/07/16 07:53:53;;;;;;;3.78;1.65;;;15.50;1.00;;;;;;10482161;28;20221;-84
2022/07/16 07:59:15;;;;;;;5.15;1.80;;;15.30;16.60;;;;;;10457017;28;20360;-79
2022/07/16 08:04:37;;;;;;;6.35;2.63;;;15.30;6.70;;;;;;10451689;28;20499;-78
2022/07/16 08:09:58;;;;;;;2.80;1.30;;;15.40;7.30;;;;;;10493789;28;20241;-78
2022/07/16 08:15:20;;;;;;;7.80;2.25;;;15.30;7.10;;;;;;10504148;28;20279;-79
2022/07/16 08:20:42;;;;;;;5.18;1.48;;;15.30;17.10;;;;;;10487077;28;20190;-79
2022/07/16 08:26:03;;;;;;;4.53;1.70;;;15.20;42.90;;;;;;10481695;28;20389;-79
2022/07/16 08:31:25;;;;;;;4.18;1.70;;;15.20;43.90;;;;;;10466011;28;20249;-78
2022/07/16 08:36:46;;;;;;;1.75;1.20;;;15.10;72.60;;;;;;10479751;28;20272;-79
2022/07/16 08:42:12;;;;;;;4.28;1.40;;;14.90;99.90;;;;;;10479050;28;20192;-78
2022/07/16 08:47:34;;;;;;;5.55;1.58;;;14.70;99.90;;;;;;10478612;28;20188;-79
2022/07/16 08:52:57;;;;;;;3.72;1.15;;;14.60;99.90;;;;;;10479386;28;20299;-79
2022/07/16 08:58:19;;;;;;;4.40;2.25;;;14.50;99.90;;;;;;10479602;28;20203;-79
2022/07/16 09:03:40;;;;;;;6.10;2.45;;;14.50;99.90;;;;;;10481147;28;20190;-79
2022/07/16 09:09:02;;;;;;;2.75;1.80;;;14.30;99.90;;;;;;10492572;28;20249;-78
2022/07/16 09:14:23;;;;;;;4.63;2.17;;;14.30;99.90;;;;;;10510173;28;20218;-79
2022/07/16 09:19:46;;;;;;;8.50;3.20;;;14.30;99.90;;;;;;10506517;28;20204;-79
2022/07/16 09:25:10;;;;;;;2.53;2.17;;;14.30;99.90;;;;;;10478394;28;20490;-78
2022/07/16 09:30:31;;;;;;;2.58;1.27;;;14.30;99.90;;;;;;10478032;28;20290;-81
2022/07/16 09:36:11;;;;;;;6.15;1.95;;;14.30;99.90;;;;;;10477451;28;20436;-84
2022/07/16 09:41:47;;;;;;;3.55;1.38;;;14.10;99.90;;;;;;10449828;28;20259;-78
2022/07/16 09:47:10;;;;;;;7.40;2.90;;;14.10;99.90;;;;;;10477290;28;20241;-79
2022/07/16 09:52:34;;;;;;;6.80;4.82;;;14.20;99.90;;;;;;10477565;28;20256;-85
2022/07/16 09:58:02;;;;;;;16.77;8.30;;;14.40;99.90;;;;;;10477225;28;20192;-78
2022/07/16 10:03:25;;;;;;;5.40;2.92;;;14.50;99.90;;;;;;10483756;28;20248;-84
2022/07/16 10:08:47;;;;;;;18.67;9.68;;;14.50;99.90;;;;;;10483474;28;20207;-81
2022/07/16 10:14:10;;;;;;;7.07;3.17;;;14.60;99.90;;;;;;10481911;28;20240;-78
2022/07/16 10:19:36;;;;;;;5.72;2.75;;;14.40;99.90;;;;;;10477543;28;20243;-81
2022/07/16 10:24:58;;;;;;;9.52;5.53;;;14.40;99.90;;;;;;10478085;28;20415;-83
2022/07/16 10:30:39;;;;;;;4.30;2.22;;;14.30;99.90;;;;;;10477415;28;20223;-79
2022/07/16 10:36:52;;;;;;;7.38;2.90;;;14.10;99.90;;;;;;10476569;28;20239;-79
2022/07/16 10:42:34;;;;;;;20.60;8.77;;;14.00;99.90;;;;;;10477154;28;20220;-78
2022/07/16 10:48:14;;;;;;;22.30;10.98;;;14.00;99.90;;;;;;10476333;28;20210;-85
2022/07/16 10:53:57;;;;;;;5.95;3.92;;;14.00;99.90;;;;;;10477300;28;20234;-82
2022/07/16 10:59:40;;;;;;;9.55;4.65;;;13.90;99.90;;;;;;10446557;28;20229;-85
2022/07/16 11:05:25;;;;;;;2.80;1.85;;;14.10;99.90;;;;;;10435897;28;20199;-86
2022/07/16 11:11:05;;;;;;;6.50;3.92;;;14.30;99.90;;;;;;10458512;28;20241;-85
2022/07/16 11:16:52;;;;;;;2.05;1.52;;;15.10;99.90;;;;;;10473033;28;20210;-86
2022/07/16 11:22:22;;;;;;;1.90;1.10;;;15.70;99.90;;;;;;10494470;28;20277;-84
2022/07/16 11:27:44;;;;;;;0.90;0.60;;;16.00;99.90;;;;;;10483465;28;20202;-86
2022/07/16 11:33:05;;;;;;;1.95;0.68;;;16.30;26.90;;;;;;10483873;28;20213;-86
2022/07/16 11:38:26;;;;;;;0.65;0.65;;;16.50;1.20;;;;;;10483422;28;20205;-84
2022/07/16 11:43:48;;;;;;;0.73;0.60;;;16.80;1.00;;;;;;10482995;28;20228;-86
2022/07/16 11:49:10;;;;;;;2.95;0.60;;;16.50;1.00;;;;;;10482899;28;20194;-86
2022/07/16 11:54:37;;;;;;;0.80;0.55;;;16.30;1.00;;;;;;10482679;28;20218;-85
2022/07/16 11:59:58;;;;;;;1.20;0.60;;;16.30;56.20;;;;;;10482233;28;20198;-84
2022/07/16 12:05:27;;;;;;;0.50;0.50;;;15.90;1.00;;;;;;10483294;28;20196;-85
2022/07/16 12:11:04;;;;;;;2.22;0.50;;;15.60;1.00;;;;;;10467603;28;20313;-86
2022/07/16 12:16:26;;;;;;;2.05;0.60;;;15.40;1.00;;;;;;10514289;28;20363;-85
2022/07/16 12:21:48;;;;;;;1.17;0.80;;;15.30;36.90;;;;;;10497735;28;20200;-86
2022/07/16 12:27:10;;;;;;;0.85;0.50;;;15.20;24.30;;;;;;10467495;28;20273;-86
2022/07/16 12:32:46;;;;;;;4.15;0.80;;;15.20;12.90;;;;;;10466618;28;20232;-81
2022/07/16 12:38:40;;;;;;;0.45;0.45;;;15.10;1.00;;;;;;10480870;28;20216;-85
2022/07/16 12:44:08;;;;;;;2.40;0.40;;;15.30;1.00;;;;;;10480776;28;20193;-84
2022/07/16 12:49:31;;;;;;;1.88;0.70;;;15.70;1.00;;;;;;10480040;28;20206;-79
2022/07/16 13:00:34;;;;;;;0.50;0.40;;;17.10;1.00;;;;;;10479709;28;20278;-82
2022/07/16 13:05:55;;;;;;;0.70;0.50;;;17.30;1.00;;;;;;10479515;28;20518;-82
2022/07/16 13:11:18;;;;;;;1.67;0.40;;;17.10;1.00;;;;;;10480649;28;20246;-86
2022/07/16 13:16:40;;;;;;;0.73;0.40;;;16.80;1.00;;;;;;10448996;28;20204;-80
2022/07/16 13:22:01;;;;;;;1.20;0.68;;;16.80;1.00;;;;;;10487934;28;20210;-79
2022/07/16 13:27:23;;;;;;;1.35;0.70;;;16.40;1.00;;;;;;10479602;28;20348;-82
2022/07/16 13:32:44;;;;;;;2.75;0.80;;;15.90;1.00;;;;;;10491929;28;20416;-79
2022/07/16 13:38:08;;;;;;;2.03;1.40;;;15.70;1.00;;;;;;10478019;28;20405;-78
2022/07/16 13:43:30;;;;;;;3.05;0.50;;;15.60;1.00;;;;;;10477746;28;20197;-80
2022/07/16 13:48:52;;;;;;;1.05;0.57;;;15.40;1.00;;;;;;10478022;28;20228;-79
2022/07/16 13:54:14;;;;;;;1.40;0.60;;;15.30;1.00;;;;;;10491797;28;20221;-80
2022/07/16 13:59:35;;;;;;;1.85;0.50;;;15.00;1.00;;;;;;10477116;28;20203;-80
2022/07/16 14:04:57;;;;;;;1.23;0.47;;;14.90;1.00;;;;;;10477956;28;20191;-81
2022/07/16 14:10:18;;;;;;;1.48;0.82;;;14.90;1.00;;;;;;10462558;28;20533;-82
2022/07/16 14:15:41;;;;;;;1.88;0.70;;;14.90;1.00;;;;;;10493603;28;20286;-78
2022/07/16 14:21:02;;;;;;;1.95;0.95;;;15.00;1.00;;;;;;10476693;28;20241;-79
2022/07/16 14:26:24;;;;;;;0.90;0.55;;;15.10;1.00;;;;;;10477885;28;20268;-79
2022/07/16 14:31:47;;;;;;;1.25;0.65;;;15.20;1.00;;;;;;10476718;28;20227;-80
2022/07/16 14:37:09;;;;;;;2.35;0.80;;;15.50;1.00;;;;;;10476497;28;20220;-78
2022/07/16 14:42:30;;;;;;;1.10;0.75;;;15.60;1.00;;;;;;10476408;28;20458;-78
2022/07/16 14:47:52;;;;;;;2.72;0.70;;;15.60;1.00;;;;;;10481752;28;20378;-83
2022/07/16 14:53:14;;;;;;;1.85;0.73;;;15.70;1.00;;;;;;10470290;28;20224;-79
2022/07/16 14:58:35;;;;;;;2.47;0.75;;;15.70;1.00;;;;;;10470182;28;20199;-79
2022/07/16 15:03:57;;;;;;;1.70;0.75;;;15.70;1.00;;;;;;10484682;28;20194;-79
2022/07/16 15:09:18;;;;;;;1.70;0.60;;;15.50;1.00;;;;;;10483577;28;20223;-78
2022/07/16 15:14:40;;;;;;;1.75;0.85;;;15.30;1.00;;;;;;10486597;28;20471;-83
2022/07/16 15:20:09;;;;;;;2.78;1.00;;;15.10;1.00;;;;;;10469088;28;20193;-80
2022/07/16 15:25:31;;;;;;;2.42;0.93;;;15.00;1.00;;;;;;10483179;28;20205;-79
2022/07/16 15:30:53;;;;;;;6.95;0.80;;;14.90;1.00;;;;;;10468976;28;20240;-83
2022/07/16 15:36:15;;;;;;;1.00;0.80;;;14.90;1.00;;;;;;10469286;28;20207;-87
2022/07/16 15:41:37;;;;;;;2.53;0.90;;;14.90;1.00;;;;;;10483276;28;20260;-79
2022/07/16 15:46:59;;;;;;;0.88;0.70;;;14.90;1.00;;;;;;10481912;28;20201;-79
2022/07/16 15:52:21;;;;;;;2.63;1.00;;;14.90;1.00;;;;;;10481811;28;20290;-79
2022/07/16 15:57:42;;;;;;;2.20;0.82;;;14.90;1.00;;;;;;10481365;28;20216;-79
2022/07/16 16:03:05;;;;;;;2.65;1.33;;;14.70;1.00;;;;;;10481976;28;20201;-79
2022/07/16 16:08:26;;;;;;;2.47;1.10;;;14.60;11.50;;;;;;10467824;28;20273;-79
2022/07/16 16:13:48;;;;;;;2.40;1.33;;;14.40;84.30;;;;;;10480931;28;20253;-77
2022/07/16 16:19:09;;;;;;;1.80;1.15;;;14.30;99.90;;;;;;10462757;28;20196;-78
2022/07/16 16:24:31;;;;;;;4.60;1.80;;;14.30;99.90;;;;;;10466919;28;20207;-79
2022/07/16 16:29:54;;;;;;;2.60;1.37;;;14.10;99.90;;;;;;10480632;28;20213;-79
2022/07/16 16:35:16;;;;;;;7.13;2.08;;;14.10;99.90;;;;;;10481411;28;20455;-78
2022/07/16 16:40:38;;;;;;;4.63;2.38;;;14.00;99.90;;;;;;10480221;28;20201;-79
2022/07/16 16:45:59;;;;;;;6.03;3.40;;;13.90;99.90;;;;;;10479988;28;20548;-80
2022/07/16 16:51:21;;;;;;;5.90;2.40;;;14.00;99.90;;;;;;10493579;28;20287;-78
2022/07/16 16:56:42;;;;;;;5.83;1.77;;;14.10;99.90;;;;;;10480744;28;20191;-78
2022/07/16 17:02:04;;;;;;;4.43;1.60;;;14.00;99.90;;;;;;10479361;28;20244;-78
2022/07/16 17:07:26;;;;;;;6.00;2.15;;;14.00;99.90;;;;;;10480365;28;20270;-80
2022/07/16 17:12:47;;;;;;;4.60;2.35;;;13.90;99.90;;;;;;10477946;28;20270;-78
2022/07/16 17:18:09;;;;;;;3.83;1.92;;;13.90;99.90;;;;;;10478924;28;20191;-78
2022/07/16 17:23:31;;;;;;;5.40;2.38;;;13.90;99.90;;;;;;10437522;28;20203;-79
2022/07/16 17:28:52;;;;;;;5.57;2.70;;;14.20;99.90;;;;;;10439951;28;20199;-80
2022/07/16 17:34:14;;;;;;;5.50;2.55;;;14.30;99.90;;;;;;10437282;28;20219;-81
2022/07/16 17:39:35;;;;;;;4.97;2.25;;;14.50;99.90;;;;;;10437589;28;20195;-85
2022/07/16 17:44:57;;;;;;;3.40;1.60;;;14.60;99.90;;;;;;10470311;28;20209;-84
2022/07/16 17:50:20;;;;;;;4.68;2.22;;;14.60;99.90;;;;;;10479419;28;20208;-85
2022/07/16 17:55:44;;;;;;;2.83;1.80;;;14.60;99.90;;;;;;10478977;28;20203;-84
2022/07/16 18:01:06;;;;;;;4.90;2.10;;;14.60;99.90;;;;;;10479289;28;20268;-81
2022/07/16 18:06:27;;;;;;;5.70;2.00;;;14.50;99.90;;;;;;10478185;28;20189;-81
2022/07/16 18:11:49;;;;;;;5.57;2.10;;;14.50;99.90;;;;;;10478084;28;20312;-79
2022/07/16 18:17:10;;;;;;;3.20;1.60;;;14.40;99.90;;;;;;10462596;28;20499;-78
2022/07/16 18:22:33;;;;;;;3.60;2.00;;;14.30;99.90;;;;;;10477784;28;20200;-77
2022/07/16 18:27:54;;;;;;;3.53;1.70;;;14.20;99.90;;;;;;10477851;28;20537;-78
2022/07/16 18:33:16;;;;;;;2.97;1.70;;;14.20;99.90;;;;;;10476965;28;20230;-81
2022/07/16 18:38:37;;;;;;;7.28;2.40;;;14.10;99.90;;;;;;10476501;28;20199;-78
2022/07/16 18:43:59;;;;;;;5.30;2.28;;;14.10;99.90;;;;;;10475944;28;20274;-79
2022/07/16 18:49:20;;;;;;;4.13;1.85;;;14.00;99.90;;;;;;10476354;28;20199;-80
2022/07/16 18:54:42;;;;;;;6.07;2.60;;;14.00;99.90;;;;;;10476126;28;20226;-77
2022/07/16 19:00:08;;;;;;;8.38;3.58;;;14.00;99.90;;;;;;10476282;28;20192;-77
2022/07/16 19:05:29;;;;;;;7.32;4.45;;;14.10;99.90;;;;;;10461929;28;20425;-79
2022/07/16 19:10:51;;;;;;;4.78;3.63;;;14.20;99.90;;;;;;10463768;28;20244;-79
2022/07/16 19:16:13;;;;;;;2.95;2.40;;;14.20;99.90;;;;;;10461675;28;20228;-80
2022/07/16 19:21:34;;;;;;;3.95;2.47;;;14.20;99.90;;;;;;10475740;28;20363;-79
2022/07/16 19:26:56;;;;;;;5.43;3.42;;;14.20;99.90;;;;;;10494752;28;20385;-77
2022/07/16 19:32:18;;;;;;;4.47;2.38;;;14.20;99.90;;;;;;10534234;28;20230;-78
2022/07/16 19:37:41;;;;;;;5.50;2.58;;;14.20;99.90;;;;;;10487989;28;20242;-79
2022/07/16 19:43:03;;;;;;;5.95;2.28;;;14.20;99.90;;;;;;10482148;28;20192;-79
2022/07/16 19:48:25;;;;;;;6.00;2.20;;;14.20;99.90;;;;;;10482974;28;20429;-82
2022/07/16 19:53:46;;;;;;;3.10;1.70;;;14.10;99.90;;;;;;10482167;28;20234;-79
2022/07/16 19:59:11;;;;;;;3.30;1.40;;;14.10;99.90;;;;;;10459915;28;20202;-85
2022/07/16 20:04:33;;;;;;;6.60;2.03;;;14.00;99.90;;;;;;10482018;28;20198;-79
2022/07/16 20:09:54;;;;;;;3.22;1.98;;;14.00;99.90;;;;;;10482324;28;20254;-80
2022/07/16 20:15:19;;;;;;;3.33;1.88;;;13.90;99.90;;;;;;10495569;28;20277;-79
2022/07/16 20:20:40;;;;;;;4.75;2.10;;;13.80;99.90;;;;;;10481239;28;20202;-77
2022/07/16 20:26:02;;;;;;;2.75;1.70;;;13.80;99.90;;;;;;10467162;28;20253;-79
2022/07/16 20:31:24;;;;;;;4.50;1.80;;;13.70;99.90;;;;;;10466248;28;20236;-79
2022/07/16 20:36:46;;;;;;;8.45;2.55;;;13.70;99.90;;;;;;10480515;28;20230;-81
2022/07/16 20:42:07;;;;;;;3.83;2.38;;;13.60;99.90;;;;;;10494674;28;20199;-80
2022/07/16 20:47:29;;;;;;;4.93;2.20;;;13.50;99.90;;;;;;10480325;28;20196;-82
2022/07/16 20:52:50;;;;;;;3.63;1.63;;;13.50;99.90;;;;;;10479615;28;20230;-79
2022/07/16 20:58:12;;;;;;;2.38;1.90;;;13.50;99.90;;;;;;10479225;28;20207;-79
2022/07/16 21:03:35;;;;;;;4.10;2.53;;;13.40;99.90;;;;;;10482459;28;20226;-79
2022/07/16 21:08:58;;;;;;;4.25;2.00;;;13.40;99.90;;;;;;10480123;28;20233;-80
2022/07/16 21:14:20;;;;;;;5.75;2.38;;;13.30;99.90;;;;;;10489328;28;20302;-80
2022/07/16 21:19:42;;;;;;;4.88;2.22;;;13.30;99.90;;;;;;10508584;28;20195;-84
2022/07/16 21:25:04;;;;;;;3.95;2.00;;;13.30;99.90;;;;;;10478878;28;20230;-79
2022/07/16 21:30:25;;;;;;;5.60;2.35;;;13.20;99.90;;;;;;10477620;28;20200;-79
2022/07/16 21:35:47;;;;;;;2.93;1.93;;;13.10;99.90;;;;;;10477984;28;20230;-84
2022/07/16 21:41:08;;;;;;;3.90;2.00;;;13.00;99.90;;;;;;10479298;28;20194;-78
2022/07/16 21:46:30;;;;;;;5.07;1.90;;;13.00;99.90;;;;;;10464200;28;20195;-79
2022/07/16 22:04:23;;;;;;;4.37;1.40;;;12.90;99.90;;;;;;10477584;28;20265;-79
2022/07/16 22:09:45;;;;;;;2.73;1.50;;;12.90;99.90;;;;;;10476715;28;20470;-79
2022/07/16 22:15:07;;;;;;;1.67;1.57;;;12.80;99.90;;;;;;10480335;28;20229;-79
2022/07/16 22:25:49;;;;;;;4.30;1.53;;;12.80;99.90;;;;;;10477303;28;20207;-79
2022/07/16 22:31:11;;;;;;;3.10;1.50;;;12.70;99.90;;;;;;10452175;28;20632;-80
2022/07/16 22:36:33;;;;;;;2.07;1.20;;;12.70;99.90;;;;;;10454922;28;20207;-79
2022/07/16 22:41:54;;;;;;;2.73;1.23;;;12.70;99.90;;;;;;10490875;28;20195;-79
2022/07/16 22:47:15;;;;;;;1.43;1.13;;;12.70;99.90;;;;;;10478769;28;20222;-79
2022/07/16 22:52:37;;;;;;;1.73;1.00;;;12.60;99.90;;;;;;10476369;28;20238;-79
2022/07/16 22:57:58;;;;;;;2.63;1.27;;;12.70;99.90;;;;;;10464600;28;20195;-81
2022/07/16 23:03:20;;;;;;;4.83;1.40;;;12.60;99.90;;;;;;10477144;28;20195;-85
2022/07/16 23:08:42;;;;;;;3.20;1.40;;;12.60;99.90;;;;;;10465476;28;20515;-79
2022/07/16 23:14:03;;;;;;;1.30;1.10;;;12.60;99.90;;;;;;10520446;28;20283;-80
2022/07/16 23:19:25;;;;;;;4.53;1.80;;;12.60;99.90;;;;;;10501077;28;20274;-82
2022/07/16 23:24:47;;;;;;;1.53;1.30;;;12.50;99.90;;;;;;10483842;28;20526;-80
2022/07/16 23:30:09;;;;;;;2.23;1.17;;;12.50;99.90;;;;;;10502542;28;20199;-79
2022/07/16 23:35:30;;;;;;;2.20;1.47;;;12.50;99.90;;;;;;10483073;28;20277;-79
2022/07/16 23:40:51;;;;;;;5.00;1.20;;;12.50;99.90;;;;;;10468386;28;20252;-78
2022/07/16 23:46:13;;;;;;;1.73;1.10;;;12.50;99.90;;;;;;10468790;28;20198;-79
2022/07/16 23:51:34;;;;;;;3.73;1.53;;;12.50;99.90;;;;;;10482340;28;20281;-78
2022/07/16 23:56:55;;;;;;;2.77;1.50;;;12.50;99.90;;;;;;10484532;28;20223;-78
